Terminal Aerodrome Forecast
Issued by NWS

Home | Current Version | Previous Version | Text Only | Print | Product List | Glossary On
Versions: 1 2 3 4 5 6 7 8 9 10 11 12 13 14 15 16 17 18 19 20 21 22 23 24 25 26 27 28 29 30
000
FTUS45 KGJT 210520
TAFVEL
TAF
KVEL 210520Z 2106/2206 VRB04KT P6SM FEW120
     FM211700 20012G20KT P6SM FEW100 FEW250
     FM211900 20017G28KT P6SM FEW100 FEW250
     FM212200 21022G36KT P6SM FEW110 SCT250
     FM220200 20015G25KT P6SM SCT100 BKN200
     FM220400 21009KT P6SM SCT090 BKN140=

USA.gov is the U.S. government's official web portal to all federal, state and local government web resources and services.